Auburn, Maine
Current Conditions -  °F | °C
As of 5:15 AM on Sunday 26 Oct 2014 (Local Time) from KLEW Reporting Station
Overcast Overcast  
Wind Chill: 39°   Ceiling: 100
Heat Index: 39°   Visibility: 0.25mi
Dew Point: 36°   Wind: 0mph
Humidity: 87%   Direction: NA
Pressure: 29.38"   Gusts: NA
Location:  44.1°N, 70.23°W
Report Text: KLEW 260915Z AUTO 00000KT 1/4SM OVC001 04/02 A2938 RMK AO1
Loading
Personal Weather Stations






























Interactive Weather Map
Tropical Storm Tracking
New forecast layout! Learn more

10-Day Weather Forecast

Advertisements
Track Severe Weather on mobile